Time;durP1;ratioP1;P1;durP2;ratioP2;P2;SDS_P1;SDS_P2;PMS_P1;PMS_P2;Temp;Humidity;BMP_temperature;BMP_pressure;BME280_temperature;BME280_humidity;BME280_pressure;Samples;Min_cycle;Max_cycle;Signal;HPM_P1;HPM_P2
2022/10/09 00:01:31;;;;;;;10.20;4.50;;;10.90;94.80;;;;;;5085449;28;20024;-83
2022/10/09 00:03:58;;;;;;;6.95;4.20;;;10.90;94.80;;;;;;5094116;28;20028;-83
2022/10/09 00:06:33;;;;;;;8.52;4.38;;;10.90;94.90;;;;;;5095559;28;20503;-80
2022/10/09 00:09:02;;;;;;;8.20;3.35;;;10.90;94.90;;;;;;5087473;28;20489;-79
2022/10/09 00:11:30;;;;;;;9.02;4.57;;;10.90;94.90;;;;;;5097254;28;20024;-81
2022/10/09 00:13:57;;;;;;;6.90;3.40;;;10.90;95.00;;;;;;5081107;28;20028;-82
2022/10/09 00:16:23;;;;;;;6.25;4.07;;;10.90;95.00;;;;;;5058299;28;20488;-81
2022/10/09 00:18:50;;;;;;;10.77;3.93;;;10.80;95.00;;;;;;5076881;28;20040;-83
2022/10/09 00:21:28;;;;;;;6.45;3.92;;;10.90;95.00;;;;;;5100464;28;20385;-81
2022/10/09 00:23:56;;;;;;;13.80;5.05;;;10.90;95.10;;;;;;5084998;28;20056;-83
2022/10/09 00:26:22;;;;;;;6.20;4.40;;;10.90;95.20;;;;;;5059817;28;20032;-82
2022/10/09 00:28:49;;;;;;;7.50;4.20;;;10.90;95.10;;;;;;5079247;28;20058;-84
2022/10/09 00:31:16;;;;;;;7.80;3.83;;;10.90;95.20;;;;;;5093540;28;20025;-79
2022/10/09 00:33:41;;;;;;;10.68;4.13;;;10.90;95.20;;;;;;5080190;28;20137;-82
2022/10/09 00:36:13;;;;;;;5.75;3.70;;;10.90;95.20;;;;;;5077453;28;20067;-82
2022/10/09 00:38:38;;;;;;;11.90;4.50;;;10.90;95.20;;;;;;5074350;28;20024;-82
2022/10/09 00:41:05;;;;;;;7.65;3.42;;;10.90;95.20;;;;;;5084103;28;20069;-82
2022/10/09 00:43:48;;;;;;;8.45;3.85;;;11.00;95.30;;;;;;5075551;28;20035;-82
2022/10/09 00:46:34;;;;;;;8.98;4.65;;;10.90;95.20;;;;;;5090523;28;20512;-83
2022/10/09 00:49:21;;;;;;;13.07;4.90;;;10.90;95.30;;;;;;5103581;28;20038;-87
2022/10/09 00:51:50;;;;;;;5.35;3.83;;;10.90;95.30;;;;;;5085537;28;20027;-83
2022/10/09 00:54:19;;;;;;;5.13;3.55;;;10.80;95.30;;;;;;5078577;28;20043;-83
2022/10/09 00:56:46;;;;;;;5.72;3.38;;;10.80;95.40;;;;;;5081532;28;20039;-83
2022/10/09 00:59:12;;;;;;;7.82;4.00;;;10.80;95.50;;;;;;5089201;28;20028;-81
2022/10/09 01:01:40;;;;;;;13.20;4.40;;;10.70;95.60;;;;;;5079419;28;20375;-81
2022/10/09 01:04:05;;;;;;;11.30;3.95;;;10.70;95.70;;;;;;5058347;28;20074;-83
2022/10/09 01:06:59;;;;;;;11.25;3.92;;;10.70;95.70;;;;;;5058447;28;20036;-82
2022/10/09 01:09:33;;;;;;;10.85;4.45;;;10.70;95.80;;;;;;5074910;28;20100;-81
2022/10/09 01:12:20;;;;;;;7.63;3.47;;;10.70;95.90;;;;;;5074188;28;20016;-82
2022/10/09 01:15:09;;;;;;;10.70;3.58;;;10.70;96.00;;;;;;5075230;28;20029;-81
2022/10/09 01:17:54;;;;;;;9.20;3.97;;;10.70;96.00;;;;;;5073723;28;20036;-83
2022/10/09 01:20:48;;;;;;;6.63;3.33;;;10.70;96.00;;;;;;5073115;28;20028;-85
2022/10/09 01:23:23;;;;;;;7.18;3.70;;;10.70;96.00;;;;;;5081906;28;20034;-83
2022/10/09 01:26:07;;;;;;;7.97;4.75;;;10.70;96.10;;;;;;5073259;28;20024;-83
2022/10/09 01:28:35;;;;;;;12.15;4.20;;;10.70;96.10;;;;;;5069273;28;20091;-83
2022/10/09 01:31:03;;;;;;;7.20;3.80;;;10.70;96.10;;;;;;5079840;28;20103;-83
2022/10/09 01:33:31;;;;;;;6.40;3.42;;;10.70;96.10;;;;;;5087844;28;20505;-83
2022/10/09 01:35:58;;;;;;;11.18;4.43;;;10.70;96.00;;;;;;5100271;28;20419;-82
2022/10/09 01:38:26;;;;;;;6.28;3.60;;;10.70;96.00;;;;;;5095030;28;20035;-82
2022/10/09 01:40:53;;;;;;;7.85;3.63;;;10.70;96.10;;;;;;5085495;28;20012;-82
2022/10/09 01:43:19;;;;;;;8.73;3.97;;;10.70;96.20;;;;;;5093804;28;20071;-80
2022/10/09 01:45:48;;;;;;;14.30;4.20;;;10.60;96.20;;;;;;5093407;28;20429;-83
2022/10/09 01:48:20;;;;;;;12.48;3.75;;;10.60;96.30;;;;;;5093253;28;20020;-83
2022/10/09 01:50:51;;;;;;;9.63;3.65;;;10.60;96.30;;;;;;5093051;28;20024;-81
2022/10/09 01:53:19;;;;;;;7.25;3.47;;;10.50;96.40;;;;;;5074906;28;20055;-82
2022/10/09 01:55:53;;;;;;;6.90;3.63;;;10.50;96.40;;;;;;5092429;28;20020;-82
2022/10/09 01:58:37;;;;;;;7.30;3.25;;;10.50;96.50;;;;;;5078106;28;20108;-83
2022/10/09 02:01:16;;;;;;;11.10;4.78;;;10.50;96.60;;;;;;5074729;28;20497;-81
2022/10/09 02:03:47;;;;;;;8.15;4.05;;;10.50;96.90;;;;;;5093126;28;20466;-82
2022/10/09 02:06:15;;;;;;;9.80;3.88;;;10.50;96.70;;;;;;5091688;28;20020;-82
2022/10/09 02:08:44;;;;;;;6.93;4.07;;;10.50;96.70;;;;;;5093567;28;20048;-82
2022/10/09 02:11:14;;;;;;;5.50;4.10;;;10.40;96.80;;;;;;5106952;28;20024;-80
2022/10/09 02:13:40;;;;;;;5.82;3.47;;;10.40;96.90;;;;;;5086646;28;20082;-81
2022/10/09 02:16:28;;;;;;;6.53;4.05;;;10.30;96.90;;;;;;5092561;28;20092;-82
2022/10/09 02:18:59;;;;;;;10.25;3.90;;;10.30;97.10;;;;;;5080945;28;20385;-83
2022/10/09 02:21:36;;;;;;;6.20;3.55;;;10.30;97.20;;;;;;5092451;28;20025;-82
2022/10/09 02:24:06;;;;;;;4.67;2.63;;;10.30;97.30;;;;;;5085063;28;20089;-82
2022/10/09 02:26:32;;;;;;;8.45;3.85;;;10.30;97.30;;;;;;5092413;28;20020;-83
2022/10/09 02:28:58;;;;;;;9.48;3.15;;;10.30;97.30;;;;;;5074829;28;20020;-82
2022/10/09 02:31:27;;;;;;;9.63;3.83;;;10.20;97.30;;;;;;5078698;28;20101;-83
2022/10/09 02:33:57;;;;;;;8.52;4.07;;;10.20;97.30;;;;;;5088249;28;20036;-83
2022/10/09 02:36:23;;;;;;;10.65;3.95;;;10.20;97.40;;;;;;5090593;28;20020;-84
2022/10/09 02:38:49;;;;;;;4.47;3.63;;;10.10;97.40;;;;;;5074328;28;20033;-82
2022/10/09 02:41:15;;;;;;;10.85;4.07;;;10.10;97.50;;;;;;5078889;28;20420;-82
2022/10/09 02:43:40;;;;;;;8.40;3.97;;;10.10;97.60;;;;;;5080198;28;20093;-82
2022/10/09 02:46:06;;;;;;;5.85;3.60;;;10.10;97.70;;;;;;5102195;28;20032;-83
2022/10/09 02:48:32;;;;;;;8.68;3.75;;;10.10;97.70;;;;;;5100527;28;20031;-82
2022/10/09 02:50:59;;;;;;;8.43;3.70;;;10.10;97.80;;;;;;5102107;28;20058;-83
2022/10/09 02:53:26;;;;;;;11.82;3.97;;;10.10;97.80;;;;;;5099640;28;20035;-83
2022/10/09 02:55:51;;;;;;;9.05;3.95;;;10.10;97.80;;;;;;5089735;28;20044;-83
2022/10/09 02:58:18;;;;;;;8.73;3.65;;;10.10;97.80;;;;;;5092461;28;20078;-82
2022/10/09 03:00:50;;;;;;;7.82;3.40;;;10.10;97.80;;;;;;5092065;28;20031;-83
2022/10/09 03:03:17;;;;;;;8.93;4.18;;;10.10;97.90;;;;;;5086152;28;20036;-83
2022/10/09 03:05:45;;;;;;;6.38;3.53;;;10.20;97.80;;;;;;5073505;28;20025;-82
2022/10/09 03:08:12;;;;;;;6.93;3.90;;;10.20;97.80;;;;;;5095864;28;20034;-83
2022/10/09 03:10:38;;;;;;;13.55;4.65;;;10.20;97.80;;;;;;5108986;28;20158;-83
2022/10/09 03:13:05;;;;;;;4.20;3.35;;;10.20;97.70;;;;;;5081152;28;20039;-83
2022/10/09 03:15:35;;;;;;;9.70;4.13;;;10.20;97.80;;;;;;5097333;28;20100;-82
2022/10/09 03:18:01;;;;;;;9.13;4.10;;;10.20;97.80;;;;;;5077881;28;20020;-82
2022/10/09 03:20:28;;;;;;;5.82;3.75;;;10.20;97.80;;;;;;5077806;28;20039;-82
2022/10/09 03:22:55;;;;;;;5.22;3.15;;;10.20;97.80;;;;;;5096220;28;20027;-81
2022/10/09 03:25:21;;;;;;;5.70;3.80;;;10.20;97.70;;;;;;5097084;28;20036;-82
2022/10/09 03:27:47;;;;;;;6.05;3.45;;;10.20;97.70;;;;;;5089146;28;20044;-81
2022/10/09 03:30:13;;;;;;;7.95;3.22;;;10.20;97.70;;;;;;5085520;28;20121;-82
2022/10/09 03:32:39;;;;;;;8.10;3.17;;;10.20;97.70;;;;;;5077204;28;20051;-81
2022/10/09 03:35:06;;;;;;;10.38;4.30;;;10.20;97.70;;;;;;5096018;28;20020;-83
2022/10/09 03:37:32;;;;;;;9.30;3.50;;;10.20;97.60;;;;;;5077311;28;20020;-83
2022/10/09 03:39:58;;;;;;;7.45;3.05;;;10.30;97.50;;;;;;5095515;28;20028;-83
2022/10/09 03:42:24;;;;;;;9.30;3.78;;;10.30;97.40;;;;;;5095383;28;20022;-82
2022/10/09 03:44:50;;;;;;;6.20;3.17;;;10.30;97.30;;;;;;5090695;28;20043;-83
2022/10/09 03:47:16;;;;;;;7.75;3.60;;;10.30;97.20;;;;;;5095712;28;20385;-82
2022/10/09 03:49:42;;;;;;;11.52;4.50;;;10.30;97.20;;;;;;5095288;28;20094;-82
2022/10/09 03:52:08;;;;;;;7.95;3.55;;;10.30;97.20;;;;;;5095427;28;20024;-84
2022/10/09 03:54:34;;;;;;;11.73;3.80;;;10.30;97.20;;;;;;5091079;28;20174;-82
2022/10/09 03:57:00;;;;;;;16.50;3.45;;;10.30;97.20;;;;;;5085229;28;20542;-81
2022/10/09 03:59:25;;;;;;;7.68;3.47;;;10.30;97.10;;;;;;5095239;28;20028;-83
2022/10/09 04:01:52;;;;;;;8.00;3.75;;;10.20;97.10;;;;;;5075781;28;20085;-82
2022/10/09 04:04:17;;;;;;;7.95;3.97;;;10.20;97.10;;;;;;5095086;28;20032;-82
2022/10/09 04:06:43;;;;;;;5.82;3.47;;;10.20;97.10;;;;;;5095564;28;20019;-80
2022/10/09 04:09:09;;;;;;;10.50;3.58;;;10.20;97.10;;;;;;5103446;28;20027;-80
2022/10/09 04:11:35;;;;;;;9.57;3.80;;;10.20;97.00;;;;;;5109107;28;20454;-80
2022/10/09 04:14:02;;;;;;;6.97;3.70;;;10.20;97.10;;;;;;5100108;28;20036;-83
2022/10/09 04:16:27;;;;;;;6.28;3.35;;;10.20;97.10;;;;;;5076735;28;20024;-81
2022/10/09 04:18:53;;;;;;;12.07;3.53;;;10.20;97.10;;;;;;5093086;28;20556;-82
2022/10/09 04:21:19;;;;;;;9.98;3.95;;;10.20;97.00;;;;;;5076404;28;20052;-82
2022/10/09 04:23:45;;;;;;;10.02;3.70;;;10.20;96.90;;;;;;5095157;28;20042;-80
2022/10/09 04:26:12;;;;;;;4.65;3.58;;;10.20;97.00;;;;;;5076758;28;20461;-83
2022/10/09 04:28:38;;;;;;;12.10;3.90;;;10.30;97.00;;;;;;5064434;28;20028;-81
2022/10/09 04:31:04;;;;;;;8.57;3.85;;;10.30;97.00;;;;;;5087859;28;20254;-83
2022/10/09 04:33:30;;;;;;;11.90;3.80;;;10.30;97.00;;;;;;5088059;28;20096;-83
2022/10/09 04:35:56;;;;;;;9.52;3.88;;;10.30;96.90;;;;;;5087764;28;20078;-83
2022/10/09 04:38:23;;;;;;;7.03;3.63;;;10.30;96.80;;;;;;5089711;28;20028;-83
2022/10/09 04:41:04;;;;;;;8.20;3.22;;;10.30;96.70;;;;;;5062268;28;20142;-82
2022/10/09 04:43:31;;;;;;;7.35;3.72;;;10.30;96.60;;;;;;5097489;28;20032;-82
2022/10/09 04:45:57;;;;;;;9.98;4.68;;;10.30;96.50;;;;;;5106419;28;20027;-82
2022/10/09 04:48:23;;;;;;;9.40;3.22;;;10.20;96.60;;;;;;5094403;28;20107;-84
2022/10/09 04:50:49;;;;;;;9.55;3.40;;;10.20;96.60;;;;;;5070795;28;20017;-82
2022/10/09 04:53:14;;;;;;;6.13;3.35;;;10.20;96.70;;;;;;5094068;28;20020;-82
2022/10/09 04:55:44;;;;;;;9.50;3.35;;;10.20;96.70;;;;;;5093990;28;20020;-83
2022/10/09 04:58:12;;;;;;;5.63;3.22;;;10.10;96.70;;;;;;5075704;28;20016;-83
2022/10/09 05:00:42;;;;;;;9.73;3.63;;;10.10;96.80;;;;;;5076191;28;20028;-82
2022/10/09 05:03:09;;;;;;;12.18;4.18;;;10.10;96.80;;;;;;5094002;28;20039;-83
2022/10/09 05:05:35;;;;;;;4.72;3.35;;;10.20;96.80;;;;;;5076107;28;20110;-82
2022/10/09 05:08:01;;;;;;;7.90;4.18;;;10.20;96.70;;;;;;5092546;28;20360;-84
2022/10/09 05:10:27;;;;;;;5.30;4.15;;;10.20;96.60;;;;;;5076031;28;20415;-84
2022/10/09 05:12:52;;;;;;;7.15;3.08;;;10.30;96.60;;;;;;5093536;28;20028;-83
2022/10/09 05:15:18;;;;;;;7.35;4.10;;;10.30;96.50;;;;;;5094783;28;20024;-84
2022/10/09 05:17:44;;;;;;;5.07;3.53;;;10.30;96.40;;;;;;5077354;28;20512;-84
2022/10/09 05:20:10;;;;;;;6.45;3.35;;;10.40;96.30;;;;;;5093657;28;20432;-84
2022/10/09 05:22:36;;;;;;;9.50;3.88;;;10.50;96.20;;;;;;5074226;28;20020;-84
2022/10/09 05:25:02;;;;;;;6.07;3.78;;;10.60;96.00;;;;;;5072723;28;20024;-83
2022/10/09 05:27:28;;;;;;;5.57;3.15;;;10.60;95.70;;;;;;5060082;28;20021;-82
2022/10/09 05:29:54;;;;;;;6.95;3.28;;;10.70;95.70;;;;;;5094047;28;20591;-85
2022/10/09 05:32:20;;;;;;;8.00;3.35;;;10.70;95.70;;;;;;5075471;28;20039;-84
2022/10/09 05:34:46;;;;;;;7.57;3.58;;;10.80;95.30;;;;;;5094441;28;20020;-83
2022/10/09 05:37:12;;;;;;;7.18;3.53;;;10.90;95.20;;;;;;5075575;28;20366;-86
2022/10/09 05:39:38;;;;;;;10.13;4.15;;;11.00;94.90;;;;;;5074983;28;20504;-84
2022/10/09 05:42:04;;;;;;;8.05;4.47;;;11.10;94.70;;;;;;5073330;28;20326;-82
2022/10/09 05:44:30;;;;;;;5.47;3.15;;;11.30;94.20;;;;;;5093583;28;20036;-82
2022/10/09 05:46:56;;;;;;;7.40;3.65;;;11.30;94.00;;;;;;5095256;28;20031;-82
2022/10/09 05:49:22;;;;;;;7.97;3.28;;;11.40;93.90;;;;;;5095528;28;20024;-82
2022/10/09 05:51:48;;;;;;;7.97;3.63;;;11.40;93.60;;;;;;5075810;28;20366;-83
2022/10/09 05:54:17;;;;;;;7.43;3.60;;;11.40;93.50;;;;;;5062398;28;20575;-84
2022/10/09 05:56:44;;;;;;;7.55;3.80;;;11.40;93.40;;;;;;5079916;28;20416;-83
2022/10/09 05:59:13;;;;;;;6.75;3.35;;;11.50;93.40;;;;;;5079189;28;20031;-85
2022/10/09 06:01:47;;;;;;;8.52;4.40;;;11.50;93.40;;;;;;5072632;28;20028;-84
2022/10/09 06:04:18;;;;;;;9.52;3.88;;;11.70;93.20;;;;;;5072752;28;20035;-84
2022/10/09 06:06:47;;;;;;;7.25;3.28;;;11.80;92.90;;;;;;5073472;28;20027;-83
2022/10/09 06:09:17;;;;;;;7.85;3.72;;;11.90;92.80;;;;;;5089836;28;20013;-80
2022/10/09 06:11:43;;;;;;;10.55;4.25;;;12.00;92.60;;;;;;5089278;28;20028;-82
2022/10/09 06:14:11;;;;;;;7.10;3.85;;;12.20;92.50;;;;;;5068761;28;20422;-84
2022/10/09 06:16:40;;;;;;;6.10;3.95;;;12.30;92.00;;;;;;5076944;28;20024;-85
2022/10/09 06:19:09;;;;;;;9.82;4.15;;;12.40;91.50;;;;;;5066782;28;20042;-84
2022/10/09 06:21:35;;;;;;;7.22;3.75;;;12.50;91.20;;;;;;5087277;28;20070;-83
2022/10/09 06:24:06;;;;;;;7.03;3.47;;;12.60;91.00;;;;;;5067445;28;20055;-83
2022/10/09 06:26:34;;;;;;;6.25;4.05;;;12.70;90.80;;;;;;5093566;28;20016;-85
2022/10/09 06:29:01;;;;;;;10.45;4.57;;;12.80;90.70;;;;;;5082006;28;20031;-82
2022/10/09 06:31:32;;;;;;;9.13;4.30;;;13.00;90.50;;;;;;5091133;28;20089;-85
2022/10/09 06:34:03;;;;;;;6.90;3.97;;;13.10;90.30;;;;;;5075697;28;20150;-84
2022/10/09 06:36:32;;;;;;;10.73;3.97;;;13.10;90.10;;;;;;5093301;28;20028;-85
2022/10/09 06:39:03;;;;;;;7.22;3.60;;;13.20;90.00;;;;;;5075335;28;20157;-84
2022/10/09 06:41:32;;;;;;;6.55;3.75;;;13.20;89.30;;;;;;5092397;28;20027;-84
2022/10/09 06:44:00;;;;;;;8.80;3.85;;;13.10;88.60;;;;;;5074558;28;20036;-84
2022/10/09 06:46:34;;;;;;;10.50;4.25;;;13.00;88.80;;;;;;5074182;28;20096;-84
2022/10/09 06:49:01;;;;;;;4.85;3.38;;;13.00;89.30;;;;;;5079631;28;20486;-83
2022/10/09 06:51:28;;;;;;;7.00;3.22;;;13.00;89.30;;;;;;5081758;28;20024;-84
2022/10/09 06:53:57;;;;;;;6.15;3.60;;;13.00;89.70;;;;;;5085091;28;20066;-83
2022/10/09 06:56:26;;;;;;;6.68;4.43;;;13.10;89.00;;;;;;5092013;28;20020;-83
2022/10/09 06:58:52;;;;;;;11.95;4.25;;;13.20;88.70;;;;;;5073752;28;20028;-83
2022/10/09 07:01:23;;;;;;;9.27;4.22;;;13.30;88.30;;;;;;5088701;28;20028;-85
2022/10/09 07:03:54;;;;;;;8.68;3.35;;;13.40;87.90;;;;;;5064414;28;20118;-82
2022/10/09 07:06:23;;;;;;;9.93;4.55;;;13.50;87.40;;;;;;5090929;28;20024;-84
2022/10/09 07:08:52;;;;;;;6.57;4.50;;;13.50;87.50;;;;;;5092095;28;20028;-84
2022/10/09 07:11:29;;;;;;;9.38;4.35;;;13.60;87.00;;;;;;5092097;28;20021;-82
2022/10/09 07:13:57;;;;;;;10.20;4.05;;;13.70;86.40;;;;;;5074002;28;20038;-84
2022/10/09 07:16:26;;;;;;;7.18;3.78;;;13.80;86.30;;;;;;5089513;28;20587;-84
2022/10/09 07:18:52;;;;;;;5.70;3.78;;;14.30;85.50;;;;;;5073290;28;20039;-84
2022/10/09 07:21:18;;;;;;;9.13;3.72;;;15.10;83.60;;;;;;5068991;28;20024;-85
2022/10/09 07:23:45;;;;;;;10.25;3.90;;;16.10;80.40;;;;;;5087736;28;20087;-86
2022/10/09 07:26:14;;;;;;;6.35;3.78;;;17.40;77.70;;;;;;5085018;28;20043;-85
2022/10/09 07:28:44;;;;;;;11.13;4.38;;;18.20;72.20;;;;;;5076510;28;20063;-85
2022/10/09 07:31:11;;;;;;;6.60;4.00;;;18.10;70.00;;;;;;5071627;28;20050;-86
2022/10/09 07:33:37;;;;;;;8.25;4.30;;;17.90;69.90;;;;;;5074136;28;20033;-85
2022/10/09 07:36:05;;;;;;;12.77;4.32;;;17.70;70.30;;;;;;5060139;28;20115;-85
2022/10/09 07:38:31;;;;;;;7.18;3.72;;;18.00;70.30;;;;;;5073470;28;20186;-84
2022/10/09 07:41:09;;;;;;;5.13;3.33;;;18.70;68.40;;;;;;5080694;28;20024;-85
2022/10/09 07:43:40;;;;;;;5.05;3.97;;;19.50;66.00;;;;;;5078989;28;20028;-85
2022/10/09 07:46:16;;;;;;;5.38;3.65;;;20.20;63.60;;;;;;5072028;28;20398;-87
2022/10/09 07:48:43;;;;;;;10.77;3.87;;;20.40;61.60;;;;;;5087559;28;20017;-87
2022/10/09 07:51:16;;;;;;;4.63;3.55;;;20.40;61.00;;;;;;5068532;28;20268;-85
2022/10/09 07:53:42;;;;;;;11.57;6.28;;;20.90;59.80;;;;;;5090759;28;20067;-86
2022/10/09 07:56:14;;;;;;;6.15;4.00;;;21.20;58.20;;;;;;5089281;28;20025;-86
2022/10/09 07:58:43;;;;;;;7.55;3.75;;;22.10;56.60;;;;;;5078136;28;20021;-85
2022/10/09 08:01:10;;;;;;;6.00;3.85;;;22.60;54.60;;;;;;5079236;28;20597;-84
2022/10/09 08:03:36;;;;;;;6.97;4.30;;;22.80;53.80;;;;;;5082546;28;20074;-85
2022/10/09 08:06:02;;;;;;;8.05;3.63;;;23.40;52.80;;;;;;5089634;28;20044;-84
2022/10/09 08:08:28;;;;;;;5.47;3.85;;;23.70;50.80;;;;;;5083216;28;20032;-84
2022/10/09 08:10:54;;;;;;;8.95;3.30;;;23.70;50.20;;;;;;5077671;28;20110;-86
2022/10/09 08:13:23;;;;;;;5.80;3.03;;;23.50;50.00;;;;;;5069633;28;20056;-86
2022/10/09 08:15:49;;;;;;;14.05;4.43;;;23.40;50.30;;;;;;5084584;28;20020;-87
2022/10/09 08:18:15;;;;;;;5.40;3.33;;;23.60;50.00;;;;;;5079668;28;20084;-88
2022/10/09 08:20:41;;;;;;;11.55;3.85;;;24.20;48.80;;;;;;5078284;28;20064;-88
2022/10/09 08:23:07;;;;;;;8.02;3.90;;;24.40;48.20;;;;;;5075747;28;20051;-88
2022/10/09 08:25:36;;;;;;;9.80;3.58;;;24.40;48.20;;;;;;5083369;28;20028;-86
2022/10/09 08:28:05;;;;;;;5.13;3.47;;;24.70;47.70;;;;;;5075890;28;20044;-85
2022/10/09 08:30:31;;;;;;;7.30;3.60;;;25.50;47.30;;;;;;5092129;28;20032;-85
2022/10/09 08:32:57;;;;;;;8.60;4.25;;;26.20;45.00;;;;;;5077032;28;20050;-85
2022/10/09 08:35:23;;;;;;;9.60;4.10;;;26.50;44.30;;;;;;5095799;28;20441;-84
2022/10/09 08:37:48;;;;;;;5.03;3.13;;;27.10;44.00;;;;;;5095201;28;20069;-83
2022/10/09 08:40:31;;;;;;;12.02;3.85;;;27.10;42.50;;;;;;5092188;28;20046;-84
2022/10/09 08:43:04;;;;;;;12.90;3.90;;;26.90;43.60;;;;;;5084396;28;20020;-87
2022/10/09 08:45:38;;;;;;;8.32;3.97;;;27.10;42.40;;;;;;5098564;28;20485;-87
2022/10/09 08:48:11;;;;;;;8.60;4.60;;;27.30;41.60;;;;;;5083337;28;20009;-87
2022/10/09 08:50:53;;;;;;;8.82;5.00;;;27.30;41.80;;;;;;5077095;28;20042;-85
2022/10/09 08:53:38;;;;;;;11.20;4.57;;;27.60;41.20;;;;;;5075988;28;20390;-87
2022/10/09 08:56:12;;;;;;;8.73;4.63;;;27.80;41.70;;;;;;5066350;28;20028;-85
2022/10/09 08:58:40;;;;;;;12.13;4.72;;;28.30;40.50;;;;;;5063215;28;20016;-86
2022/10/09 09:01:18;;;;;;;13.00;4.38;;;29.00;40.00;;;;;;5092998;28;20016;-86
2022/10/09 09:03:47;;;;;;;8.63;4.03;;;29.30;39.00;;;;;;5099407;28;20485;-84
2022/10/09 09:06:20;;;;;;;4.97;3.50;;;29.10;39.00;;;;;;5092014;28;20036;-85
2022/10/09 09:09:13;;;;;;;5.10;3.45;;;29.20;38.70;;;;;;5076526;28;20405;-82
2022/10/09 09:11:47;;;;;;;7.93;3.95;;;28.00;39.80;;;;;;5061250;28;20021;-86
2022/10/09 09:14:54;;;;;;;7.82;4.00;;;27.70;40.00;;;;;;5057808;28;20382;-86
2022/10/09 09:17:49;;;;;;;9.27;3.70;;;28.30;39.80;;;;;;5075904;28;20024;-83
2022/10/09 09:20:44;;;;;;;5.10;3.33;;;27.20;40.00;;;;;;5090455;28;20060;-90
2022/10/09 09:23:14;;;;;;;6.65;3.90;;;27.20;40.80;;;;;;5078402;28;20110;-90
2022/10/09 09:25:44;;;;;;;7.13;3.45;;;27.50;40.30;;;;;;5091224;28;20020;-90
2022/10/09 09:28:30;;;;;;;6.07;3.47;;;27.80;39.60;;;;;;5075311;28;20024;-93
2022/10/09 09:31:11;;;;;;;10.55;3.75;;;27.80;39.30;;;;;;5082646;28;20024;-89
2022/10/09 09:33:47;;;;;;;6.97;3.90;;;26.60;39.90;;;;;;5075757;28;20124;-89
2022/10/09 09:36:22;;;;;;;6.00;3.78;;;25.90;41.40;;;;;;5087029;28;20024;-87
2022/10/09 09:38:52;;;;;;;9.05;3.55;;;26.00;41.60;;;;;;5067247;28;20070;-91
2022/10/09 09:41:19;;;;;;;8.90;3.50;;;26.40;41.00;;;;;;5099880;28;20031;-92
2022/10/09 09:43:50;;;;;;;6.82;3.53;;;26.90;40.20;;;;;;5095288;28;20028;-91
2022/10/09 09:46:30;;;;;;;7.30;3.05;;;27.40;39.50;;;;;;5078936;28;20058;-92
2022/10/09 09:49:02;;;;;;;5.28;2.75;;;27.50;39.20;;;;;;5079497;28;20024;-93
2022/10/09 09:51:33;;;;;;;4.60;3.05;;;27.50;39.00;;;;;;5096782;28;20032;-91
2022/10/09 09:54:13;;;;;;;6.72;3.30;;;27.20;38.70;;;;;;5099905;28;20429;-92
2022/10/09 09:56:41;;;;;;;6.43;3.30;;;26.40;39.90;;;;;;5065492;28;20051;-88
2022/10/09 09:59:24;;;;;;;5.22;3.25;;;26.70;40.10;;;;;;5088358;28;20027;-82
2022/10/09 10:02:03;;;;;;;6.68;3.92;;;27.10;39.80;;;;;;5095551;28;20028;-85
2022/10/09 10:04:29;;;;;;;8.55;3.42;;;26.80;39.50;;;;;;5085253;28;20035;-83
2022/10/09 10:06:55;;;;;;;6.82;3.60;;;26.50;40.00;;;;;;5090337;28;20021;-83
2022/10/09 10:09:21;;;;;;;6.90;3.30;;;26.30;40.10;;;;;;5092893;28;20035;-83
2022/10/09 10:11:51;;;;;;;6.97;3.00;;;24.80;40.90;;;;;;5073820;28;20024;-83
2022/10/09 10:14:17;;;;;;;5.97;3.40;;;24.60;41.90;;;;;;5067897;28;20074;-82
2022/10/09 10:16:48;;;;;;;8.68;3.08;;;23.40;43.30;;;;;;5084750;28;20129;-82
2022/10/09 10:19:37;;;;;;;8.32;3.50;;;22.40;44.90;;;;;;5074411;28;20024;-86
2022/10/09 10:22:24;;;;;;;8.93;3.53;;;21.80;46.20;;;;;;5059619;28;20052;-86
2022/10/09 10:24:53;;;;;;;8.10;3.75;;;21.30;47.60;;;;;;5073800;28;20040;-84
2022/10/09 10:27:22;;;;;;;7.03;4.43;;;21.10;48.60;;;;;;5083399;28;20016;-84
2022/10/09 10:29:51;;;;;;;6.30;4.03;;;20.90;48.70;;;;;;5080677;28;20024;-84
2022/10/09 10:32:34;;;;;;;9.77;3.70;;;20.70;48.70;;;;;;5073164;28;20041;-83
2022/10/09 10:35:16;;;;;;;3.70;3.10;;;20.40;49.20;;;;;;5079251;28;20399;-84
2022/10/09 10:38:06;;;;;;;6.72;2.85;;;19.90;49.60;;;;;;5079719;28;20070;-88
2022/10/09 10:40:56;;;;;;;5.38;3.13;;;19.50;50.30;;;;;;5079859;28;20032;-85
2022/10/09 10:43:42;;;;;;;7.70;5.15;;;19.40;50.60;;;;;;5058892;28;20573;-86
2022/10/09 10:46:16;;;;;;;6.88;4.00;;;19.40;51.10;;;;;;5059064;28;20478;-85
2022/10/09 10:48:46;;;;;;;6.93;3.70;;;19.50;50.90;;;;;;5079658;28;20020;-84
2022/10/09 10:51:33;;;;;;;5.32;3.63;;;19.50;50.80;;;;;;5077483;28;20055;-83
2022/10/09 10:54:02;;;;;;;;;;;19.40;50.70;;;;;;5079828;28;20028;-82
2022/10/09 10:56:34;;;;;;;7.65;3.60;;;19.40;50.80;;;;;;5079580;28;19904;-85
2022/10/09 10:59:28;;;;;;;7.38;3.00;;;19.30;51.30;;;;;;5083520;28;20021;-86
2022/10/09 11:02:09;;;;;;;4.80;3.20;;;19.30;51.50;;;;;;5067858;28;20029;-87
2022/10/09 11:05:00;;;;;;;6.70;3.42;;;19.20;52.20;;;;;;5101307;28;20044;-85
2022/10/09 11:07:53;;;;;;;6.85;3.67;;;19.20;52.00;;;;;;5069485;28;20035;-84
2022/10/09 11:10:43;;;;;;;5.75;3.63;;;19.10;52.40;;;;;;5083175;28;20084;-84
2022/10/09 11:13:17;;;;;;;6.72;3.53;;;19.10;52.70;;;;;;5078652;28;20122;-86
2022/10/09 11:16:20;;;;;;;5.53;3.50;;;19.10;52.60;;;;;;5058135;28;20083;-88
2022/10/09 11:19:01;;;;;;;4.65;3.42;;;19.00;52.80;;;;;;5078520;28;20043;-86
2022/10/09 11:21:59;;;;;;;7.13;3.33;;;18.90;52.60;;;;;;5099805;28;20142;-87
2022/10/09 11:24:58;;;;;;;5.43;3.92;;;18.90;52.80;;;;;;5020061;28;20040;-86
2022/10/09 11:27:42;;;;;;;7.25;3.35;;;18.90;52.80;;;;;;5086457;28;20381;-85
2022/10/09 11:30:14;;;;;;;6.38;2.70;;;19.00;52.70;;;;;;5102488;28;20111;-86
2022/10/09 11:33:06;;;;;;;4.97;2.50;;;19.00;52.20;;;;;;5100658;28;20139;-86
2022/10/09 11:35:43;;;;;;;5.53;3.03;;;18.90;52.40;;;;;;5098751;28;20384;-86
2022/10/09 11:38:33;;;;;;;9.80;3.35;;;18.90;52.10;;;;;;5090640;28;20024;-85
2022/10/09 11:41:00;;;;;;;9.77;7.15;;;18.90;52.20;;;;;;5092883;28;20021;-84
2022/10/09 11:43:27;;;;;;;7.00;4.07;;;18.90;52.40;;;;;;5062229;28;20017;-85
2022/10/09 11:46:27;;;;;;;6.70;3.47;;;18.90;52.50;;;;;;5085907;28;20060;-84
2022/10/09 11:49:02;;;;;;;9.43;3.42;;;18.90;52.40;;;;;;5098478;28;20770;-87
2022/10/09 11:51:37;;;;;;;6.28;3.42;;;18.90;52.50;;;;;;5089536;28;20025;-85
2022/10/09 11:54:05;;;;;;;11.77;3.70;;;18.80;52.40;;;;;;5078531;28;20023;-85
2022/10/09 11:56:32;;;;;;;7.25;3.75;;;18.80;52.60;;;;;;5079494;28;20025;-83
2022/10/09 11:58:59;;;;;;;;;;;18.70;52.70;;;;;;5087844;28;20079;-83
2022/10/09 12:01:33;;;;;;;8.70;3.40;;;18.60;52.80;;;;;;5073566;28;19915;-87
2022/10/09 12:04:28;;;;;;;8.60;3.90;;;18.50;53.30;;;;;;5062726;28;20028;-86
2022/10/09 12:06:57;;;;;;;9.70;5.32;;;18.50;53.70;;;;;;5050443;28;20421;-84
2022/10/09 12:09:27;;;;;;;12.65;4.22;;;18.40;54.30;;;;;;5057367;28;20362;-83
2022/10/09 12:12:17;;;;;;;5.50;3.50;;;18.40;54.50;;;;;;5077625;28;20017;-89
2022/10/09 12:14:45;;;;;;;7.93;3.90;;;18.30;54.30;;;;;;5071883;28;20024;-87
2022/10/09 12:17:20;;;;;;;12.50;5.18;;;18.30;54.50;;;;;;5100570;28;20133;-92
2022/10/09 12:19:54;;;;;;;10.23;4.40;;;18.40;55.30;;;;;;5061707;28;20478;-89
2022/10/09 12:22:31;;;;;;;8.25;5.13;;;18.40;55.10;;;;;;5096914;28;20488;-90
2022/10/09 12:25:03;;;;;;;7.70;4.18;;;18.40;55.10;;;;;;5085474;28;20101;-89
2022/10/09 12:27:39;;;;;;;6.93;3.70;;;18.40;55.00;;;;;;5080412;28;20132;-92
2022/10/09 12:30:11;;;;;;;9.20;4.25;;;18.20;55.10;;;;;;5066808;28;20030;-85
2022/10/09 12:33:14;;;;;;;9.25;4.47;;;18.10;55.50;;;;;;5057357;28;20048;-85
2022/10/09 12:35:44;;;;;;;11.25;4.60;;;18.00;55.90;;;;;;5048708;28;20085;-85
2022/10/09 12:38:32;;;;;;;9.02;4.15;;;18.00;56.30;;;;;;5069197;28;20079;-84
2022/10/09 12:41:09;;;;;;;10.25;4.07;;;18.00;56.50;;;;;;5085586;28;20020;-86
2022/10/09 12:43:35;;;;;;;11.07;4.90;;;17.90;56.50;;;;;;5078770;28;20401;-84
2022/10/09 12:46:02;;;;;;;8.32;4.38;;;17.80;56.70;;;;;;5078433;28;20504;-84
2022/10/09 12:48:39;;;;;;;11.50;5.00;;;17.70;57.20;;;;;;5080314;28;20020;-82
2022/10/09 12:51:15;;;;;;;9.82;5.88;;;17.70;57.50;;;;;;5079384;28;20021;-82
2022/10/09 12:53:47;;;;;;;13.57;5.82;;;17.70;58.10;;;;;;5076947;28;20484;-86
2022/10/09 12:56:19;;;;;;;7.93;4.93;;;17.60;58.00;;;;;;5076274;28;20037;-85
2022/10/09 12:58:45;;;;;;;9.57;5.13;;;17.60;58.30;;;;;;5078415;28;20029;-84
2022/10/09 13:01:13;;;;;;;10.15;5.15;;;17.40;58.80;;;;;;5071944;28;20047;-87
2022/10/09 13:03:42;;;;;;;8.00;4.70;;;17.30;59.30;;;;;;5077361;28;20051;-84
2022/10/09 13:06:23;;;;;;;11.10;4.65;;;17.30;59.40;;;;;;5075588;28;20021;-85
2022/10/09 13:09:04;;;;;;;13.98;5.60;;;17.10;60.50;;;;;;5082366;28;20024;-84